Time;durP1;ratioP1;P1;durP2;ratioP2;P2;SDS_P1;SDS_P2;PMS_P1;PMS_P2;Temp;Humidity;BMP_temperature;BMP_pressure;BME280_temperature;BME280_humidity;BME280_pressure;Samples;Min_cycle;Max_cycle;Signal;HPM_P1;HPM_P2
2022/09/15 00:00:48;;;;;;;;;;;20.20;92.80;;;;;;6118070;23;19947;-82
2022/09/15 00:03:14;;;;;;;;;;;20.20;92.80;;;;;;6118546;23;19944;-82
2022/09/15 00:05:41;;;;;;;;;;;20.10;92.80;;;;;;6118065;23;20286;-82
2022/09/15 00:08:08;;;;;;;;;;;20.10;93.00;;;;;;6118616;23;19992;-82
2022/09/15 00:10:35;;;;;;;;;;;20.00;92.80;;;;;;6095134;23;19924;-82
2022/09/15 00:13:01;;;;;;;;;;;20.00;93.20;;;;;;6118573;23;19989;-82
2022/09/15 00:15:28;;;;;;;;;;;19.90;93.00;;;;;;6095241;23;19921;-81
2022/09/15 00:17:55;;;;;;;;;;;19.90;93.20;;;;;;6118228;23;19931;-82
2022/09/15 00:20:22;;;;;;;;;;;19.90;93.00;;;;;;6118703;23;19937;-82
2022/09/15 00:22:48;;;;;;;;;;;19.80;93.10;;;;;;6093816;23;19917;-82
2022/09/15 00:25:15;;;;;;;;;;;19.70;93.00;;;;;;6094167;23;19917;-82
2022/09/15 00:27:42;;;;;;;;;;;19.70;93.30;;;;;;6117745;23;20346;-82
2022/09/15 00:30:09;;;;;;;;;;;19.60;93.20;;;;;;6095685;23;19923;-81
2022/09/15 00:32:36;;;;;;;;;;;19.50;93.60;;;;;;6117680;23;19996;-82
2022/09/15 00:35:03;;;;;;;;;;;19.40;94.60;;;;;;6118610;23;20000;-82
2022/09/15 00:37:30;;;;;;;;;;;19.30;94.60;;;;;;6117704;23;19917;-82
2022/09/15 00:39:57;;;;;;;;;;;19.30;94.40;;;;;;6118762;23;19944;-82
2022/09/15 00:42:24;;;;;;;;;;;19.30;94.20;;;;;;6118870;23;19921;-82
2022/09/15 00:45:00;;;;;;;;;;;19.30;94.20;;;;;;6121551;23;19996;-82
2022/09/15 00:47:32;;;;;;;;;;;19.20;94.10;;;;;;6121300;23;19964;-82
2022/09/15 00:50:02;;;;;;;;;;;19.20;94.30;;;;;;6122917;23;19987;-82
2022/09/15 00:52:41;;;;;;;;;;;19.20;94.10;;;;;;6120597;23;19971;-82
2022/09/15 00:55:10;;;;;;;;;;;19.20;94.20;;;;;;6120535;23;19991;-82
2022/09/15 00:57:44;;;;;;;;;;;19.10;94.00;;;;;;6119349;23;19968;-82
2022/09/15 01:00:13;;;;;;;;;;;19.10;94.40;;;;;;6121248;23;19917;-81
2022/09/15 01:02:41;;;;;;;;;;;19.10;94.20;;;;;;6117969;23;19917;-80
2022/09/15 01:05:09;;;;;;;;;;;19.10;94.30;;;;;;6118804;23;19990;-81
2022/09/15 01:07:42;;;;;;;;;;;19.00;94.50;;;;;;6117068;23;19917;-81
2022/09/15 01:10:12;;;;;;;;;;;19.00;94.60;;;;;;6118273;23;19941;-81
2022/09/15 01:12:39;;;;;;;;;;;19.00;94.70;;;;;;6118051;23;20382;-81
2022/09/15 01:15:06;;;;;;;;;;;18.90;95.30;;;;;;6118952;23;19925;-80
2022/09/15 01:17:58;;;;;;;;;;;18.90;95.80;;;;;;6119320;23;19987;-81
2022/09/15 01:20:37;;;;;;;;;;;18.80;96.10;;;;;;6119974;23;19917;-81
2022/09/15 01:23:07;;;;;;;;;;;18.70;96.90;;;;;;6095864;23;19917;-81
2022/09/15 01:25:37;;;;;;;;;;;18.60;97.50;;;;;;6096055;23;19917;-81
2022/09/15 01:28:12;;;;;;;;;;;18.60;97.50;;;;;;6095044;23;20001;-79
2022/09/15 01:30:48;;;;;;;;;;;18.60;97.30;;;;;;6095748;23;20330;-81
2022/09/15 01:33:15;;;;;;;;;;;18.60;97.00;;;;;;6120162;23;19939;-81
2022/09/15 01:35:42;;;;;;;;;;;18.60;96.80;;;;;;6096075;23;20001;-81
2022/09/15 01:38:19;;;;;;;;;;;18.60;96.50;;;;;;6095196;23;19924;-81
2022/09/15 01:40:51;;;;;;;;;;;18.50;96.20;;;;;;6119916;23;19923;-81
2022/09/15 01:43:19;;;;;;;;;;;18.50;96.10;;;;;;6119711;23;19921;-81
2022/09/15 01:45:47;;;;;;;;;;;18.50;96.40;;;;;;6120263;23;19940;-80
2022/09/15 01:48:15;;;;;;;;;;;18.40;96.20;;;;;;6119427;23;19953;-81
2022/09/15 01:50:45;;;;;;;;;;;18.40;96.10;;;;;;6120024;23;19992;-82
2022/09/15 01:53:14;;;;;;;;;;;18.40;96.00;;;;;;6119155;23;20000;-81
2022/09/15 01:55:53;;;;;;;;;;;18.40;96.60;;;;;;6119977;23;19956;-81
2022/09/15 01:58:19;;;;;;;;;;;18.40;96.40;;;;;;6119321;23;19917;-81
2022/09/15 02:04:00;;;;;;;;;;;18.40;96.50;;;;;;6097071;23;19917;-81
2022/09/15 02:06:39;;;;;;;;;;;18.40;96.30;;;;;;6120425;23;19928;-81
2022/09/15 02:09:26;;;;;;;;;;;18.40;96.20;;;;;;6119664;23;19952;-81
2022/09/15 02:11:57;;;;;;;;;;;18.40;96.60;;;;;;6094488;23;19993;-81
2022/09/15 02:14:35;;;;;;;;;;;18.40;96.70;;;;;;6119710;23;19992;-81
2022/09/15 02:17:04;;;;;;;;;;;18.40;96.50;;;;;;6118920;23;20004;-81
2022/09/15 02:19:37;;;;;;;;;;;18.30;96.60;;;;;;6119517;23;20253;-81
2022/09/15 02:22:09;;;;;;;;;;;18.30;96.50;;;;;;6094765;23;19979;-82
2022/09/15 02:24:41;;;;;;;;;;;18.30;96.50;;;;;;6119851;23;20254;-81
2022/09/15 02:27:09;;;;;;;;;;;18.30;96.60;;;;;;6118980;23;19928;-81
2022/09/15 02:29:37;;;;;;;;;;;18.20;97.10;;;;;;6119509;23;19917;-81
2022/09/15 02:32:05;;;;;;;;;;;18.20;97.60;;;;;;6118859;23;19928;-81
2022/09/15 02:34:39;;;;;;;;;;;18.10;97.70;;;;;;6120015;23;19921;-81
2022/09/15 02:37:07;;;;;;;;;;;18.00;97.80;;;;;;6118801;23;19917;-80
2022/09/15 02:39:36;;;;;;;;;;;18.00;97.50;;;;;;6095173;23;20274;-81
2022/09/15 02:42:02;;;;;;;;;;;18.00;97.30;;;;;;6118813;23;19960;-81
2022/09/15 02:44:29;;;;;;;;;;;18.10;97.10;;;;;;6119742;23;19923;-81
2022/09/15 02:46:57;;;;;;;;;;;18.10;96.90;;;;;;6119499;23;19948;-81
2022/09/15 02:49:24;;;;;;;;;;;18.10;96.80;;;;;;6097279;23;19921;-81
2022/09/15 02:51:50;;;;;;;;;;;18.10;96.80;;;;;;6094669;23;19924;-81
2022/09/15 02:54:17;;;;;;;;;;;18.10;97.20;;;;;;6119433;23;19921;-81
2022/09/15 02:56:45;;;;;;;;;;;18.10;96.90;;;;;;6119603;23;19923;-82
2022/09/15 02:59:12;;;;;;;;;;;18.10;97.20;;;;;;6094498;23;19996;-82
2022/09/15 03:01:39;;;;;;;;;;;18.10;96.90;;;;;;6119310;23;19991;-81
2022/09/15 03:04:06;;;;;;;;;;;18.10;96.90;;;;;;6118917;23;19917;-81
2022/09/15 03:06:34;;;;;;;;;;;18.00;97.00;;;;;;6119225;23;19988;-81
2022/09/15 03:09:02;;;;;;;;;;;18.00;96.90;;;;;;6094398;23;19917;-81
2022/09/15 03:11:29;;;;;;;;;;;18.00;96.80;;;;;;6119366;23;19917;-81
2022/09/15 03:13:57;;;;;;;;;;;18.00;96.80;;;;;;6118553;23;19917;-80
2022/09/15 03:16:24;;;;;;;;;;;18.00;97.30;;;;;;6119535;23;20004;-81
2022/09/15 03:18:53;;;;;;;;;;;17.90;97.60;;;;;;6118338;23;19917;-81
2022/09/15 03:21:20;;;;;;;;;;;18.00;97.40;;;;;;6118956;23;20033;-80
2022/09/15 03:23:47;;;;;;;;;;;17.90;97.20;;;;;;6119262;23;19988;-81
2022/09/15 03:26:13;;;;;;;;;;;17.90;97.10;;;;;;6118381;23;19956;-81
2022/09/15 03:28:40;;;;;;;;;;;17.80;97.30;;;;;;6119248;23;19993;-81
2022/09/15 03:31:08;;;;;;;;;;;17.80;98.00;;;;;;6095439;23;19917;-81
2022/09/15 03:33:35;;;;;;;;;;;17.70;97.80;;;;;;6119107;23;19924;-81
2022/09/15 03:36:02;;;;;;;;;;;17.70;98.40;;;;;;6118257;23;19988;-81
2022/09/15 03:38:29;;;;;;;;;;;17.60;98.30;;;;;;6118906;23;19947;-81
2022/09/15 03:41:00;;;;;;;;;;;17.60;98.30;;;;;;6118354;23;20030;-81
2022/09/15 03:43:28;;;;;;;;;;;17.60;98.00;;;;;;6118233;23;19917;-81
2022/09/15 03:45:55;;;;;;;;;;;17.50;98.40;;;;;;6118075;23;19987;-81
2022/09/15 03:48:23;;;;;;;;;;;17.40;98.80;;;;;;6118881;23;19917;-81
2022/09/15 03:50:49;;;;;;;;;;;17.30;99.00;;;;;;6118547;23;20293;-81
2022/09/15 03:53:17;;;;;;;;;;;17.30;99.60;;;;;;6117982;23;19957;-81
2022/09/15 03:55:44;;;;;;;;;;;17.40;99.90;;;;;;6118981;23;19921;-82
2022/09/15 03:58:11;;;;;;;;;;;17.40;99.90;;;;;;6118086;23;19996;-81
2022/09/15 04:00:39;;;;;;;;;;;17.30;99.90;;;;;;6094279;23;19932;-81
2022/09/15 04:03:06;;;;;;;;;;;17.30;99.90;;;;;;6118065;23;19917;-80
2022/09/15 04:05:33;;;;;;;;;;;17.30;99.90;;;;;;6118518;23;19917;-81
2022/09/15 04:08:00;;;;;;;;;;;17.30;99.90;;;;;;6117169;23;20330;-81
2022/09/15 04:10:28;;;;;;;;;;;17.30;99.90;;;;;;6118739;23;19924;-81
2022/09/15 04:12:54;;;;;;;;;;;17.30;99.90;;;;;;6118141;23;19924;-81
2022/09/15 04:15:21;;;;;;;;;;;17.30;99.90;;;;;;6118505;23;20322;-81
2022/09/15 04:17:48;;;;;;;;;;;17.30;99.60;;;;;;6118069;23;19921;-81
2022/09/15 04:20:16;;;;;;;;;;;17.20;99.30;;;;;;6117391;23;19924;-81
2022/09/15 04:22:43;;;;;;;;;;;17.20;99.10;;;;;;6118967;23;20326;-82
2022/09/15 04:25:10;;;;;;;;;;;17.20;99.20;;;;;;6086600;23;19988;-83
2022/09/15 04:27:37;;;;;;;;;;;17.10;99.30;;;;;;6094651;23;19972;-81
2022/09/15 04:30:05;;;;;;;;;;;17.10;99.40;;;;;;6095194;23;20344;-82
2022/09/15 04:32:32;;;;;;;;;;;17.10;99.30;;;;;;6118909;23;19917;-82
2022/09/15 04:34:59;;;;;;;;;;;17.10;99.40;;;;;;6117944;23;19991;-82
2022/09/15 04:37:25;;;;;;;;;;;17.10;98.90;;;;;;6118739;23;19988;-79
2022/09/15 04:39:52;;;;;;;;;;;16.90;99.10;;;;;;6118707;23;19945;-79
2022/09/15 04:42:20;;;;;;;;;;;16.80;99.00;;;;;;6118061;23;19917;-81
2022/09/15 04:44:47;;;;;;;;;;;16.80;99.20;;;;;;6118449;23;20334;-82
2022/09/15 04:47:13;;;;;;;;;;;16.70;99.90;;;;;;6117883;23;20000;-81
2022/09/15 04:49:40;;;;;;;;;;;16.70;99.90;;;;;;6118495;23;19917;-82
2022/09/15 04:52:07;;;;;;;;;;;16.70;99.90;;;;;;6120007;23;19917;-79
2022/09/15 04:54:35;;;;;;;;;;;16.70;99.90;;;;;;6097673;23;19917;-79
2022/09/15 04:57:02;;;;;;;;;;;16.70;99.90;;;;;;6120053;23;19917;-81
2022/09/15 04:59:29;;;;;;;;;;;16.80;99.90;;;;;;6120007;23;20312;-81
2022/09/15 05:01:56;;;;;;;;;;;16.80;99.90;;;;;;6118055;23;19964;-81
2022/09/15 05:04:22;;;;;;;;;;;16.70;99.90;;;;;;6119765;23;19969;-81
2022/09/15 05:06:49;;;;;;;;;;;16.80;99.90;;;;;;6120056;23;19983;-81
2022/09/15 05:09:16;;;;;;;;;;;16.80;99.90;;;;;;6119732;23;19925;-82
2022/09/15 05:11:43;;;;;;;;;;;16.80;99.90;;;;;;6120236;23;19941;-82
2022/09/15 05:14:10;;;;;;;;;;;16.90;99.90;;;;;;6118802;23;19995;-81
2022/09/15 05:16:37;;;;;;;;;;;16.90;99.90;;;;;;6120279;23;19924;-81
2022/09/15 05:19:03;;;;;;;;;;;16.90;99.90;;;;;;6096606;23;20333;-81
2022/09/15 05:21:31;;;;;;;;;;;16.90;99.90;;;;;;6119872;23;19968;-81
2022/09/15 05:23:58;;;;;;;;;;;16.90;99.90;;;;;;6119394;23;19917;-81
2022/09/15 05:26:25;;;;;;;;;;;16.90;99.90;;;;;;6119942;23;19921;-81
2022/09/15 05:28:52;;;;;;;;;;;16.90;99.90;;;;;;6120016;23;19917;-80
2022/09/15 05:31:26;;;;;;;;;;;17.00;99.90;;;;;;6095549;23;19992;-81
2022/09/15 05:33:53;;;;;;;;;;;17.00;99.90;;;;;;6119863;23;20285;-80
2022/09/15 05:36:23;;;;;;;;;;;17.10;99.90;;;;;;6119536;23;19996;-81
2022/09/15 05:38:51;;;;;;;;;;;17.00;99.90;;;;;;6098220;23;19925;-83
2022/09/15 05:41:19;;;;;;;;;;;17.10;99.90;;;;;;6121300;23;20310;-81
2022/09/15 05:43:46;;;;;;;;;;;17.10;99.90;;;;;;6122507;23;19933;-80
2022/09/15 05:46:15;;;;;;;;;;;17.10;99.90;;;;;;6119487;23;20261;-82
2022/09/15 05:48:42;;;;;;;;;;;17.10;99.90;;;;;;6120642;23;19917;-81
2022/09/15 05:51:08;;;;;;;;;;;17.10;99.90;;;;;;6119328;23;19925;-79
2022/09/15 05:53:35;;;;;;;;;;;17.10;99.90;;;;;;6120170;23;19917;-80
2022/09/15 05:56:06;;;;;;;;;;;17.10;99.90;;;;;;6095956;23;19948;-78
2022/09/15 05:58:33;;;;;;;;;;;17.20;99.90;;;;;;6119479;23;20012;-80
2022/09/15 06:01:07;;;;;;;;;;;17.20;99.80;;;;;;6118120;23;19917;-81
2022/09/15 06:03:34;;;;;;;;;;;17.20;99.70;;;;;;6119433;23;20254;-80
2022/09/15 06:06:02;;;;;;;;;;;17.20;99.90;;;;;;6094468;23;19992;-80
2022/09/15 06:08:30;;;;;;;;;;;17.20;99.90;;;;;;6094601;23;20051;-79
2022/09/15 06:11:01;;;;;;;;;;;17.20;99.90;;;;;;6119537;23;19959;-80
2022/09/15 06:13:28;;;;;;;;;;;17.30;99.80;;;;;;6095956;23;19927;-79
2022/09/15 06:15:59;;;;;;;;;;;17.30;99.70;;;;;;6120954;23;19921;-81
2022/09/15 06:18:26;;;;;;;;;;;17.30;99.80;;;;;;6118524;23;20326;-79
2022/09/15 06:20:52;;;;;;;;;;;17.40;99.90;;;;;;6119066;23;19996;-79
2022/09/15 06:23:19;;;;;;;;;;;17.40;99.90;;;;;;6094592;23;19921;-80
2022/09/15 06:25:46;;;;;;;;;;;17.40;99.90;;;;;;6119543;23;19944;-80
2022/09/15 06:28:13;;;;;;;;;;;17.50;99.90;;;;;;6118753;23;19988;-80
2022/09/15 06:30:39;;;;;;;;;;;17.50;99.90;;;;;;6119033;23;19928;-79
2022/09/15 06:33:06;;;;;;;;;;;17.60;99.90;;;;;;6118333;23;20239;-79
2022/09/15 06:35:33;;;;;;;;;;;17.70;99.90;;;;;;6119296;23;19996;-79
2022/09/15 06:37:59;;;;;;;;;;;17.70;99.90;;;;;;6119282;23;19944;-79
2022/09/15 06:40:26;;;;;;;;;;;17.80;99.90;;;;;;6118279;23;19917;-79
2022/09/15 06:42:54;;;;;;;;;;;17.90;99.90;;;;;;6094206;23;19921;-79
2022/09/15 06:45:21;;;;;;;;;;;17.90;99.90;;;;;;6117099;23;19917;-79
2022/09/15 06:47:50;;;;;;;;;;;18.00;99.90;;;;;;6094662;23;19989;-79
2022/09/15 06:50:36;;;;;;;;;;;18.00;99.90;;;;;;6114720;23;19917;-79
2022/09/15 06:53:03;;;;;;;;;;;18.10;99.90;;;;;;6116993;23;19960;-79
2022/09/15 06:55:30;;;;;;;;;;;18.30;99.90;;;;;;6118629;23;19917;-79
2022/09/15 06:57:58;;;;;;;;;;;18.40;99.90;;;;;;6095813;23;19955;-79
2022/09/15 07:00:28;;;;;;;;;;;18.60;99.90;;;;;;6095418;23;19917;-79
2022/09/15 07:02:54;;;;;;;;;;;18.70;99.90;;;;;;6118834;23;19919;-79
2022/09/15 07:05:24;;;;;;;;;;;18.80;99.90;;;;;;6118137;23;19917;-80
2022/09/15 07:07:51;;;;;;;;;;;19.00;99.90;;;;;;6094533;23;19931;-79
2022/09/15 07:10:18;;;;;;;;;;;19.20;99.00;;;;;;6117961;23;19992;-80
2022/09/15 07:12:45;;;;;;;;;;;19.40;98.60;;;;;;6118468;23;19918;-79
2022/09/15 07:15:11;;;;;;;;;;;19.50;97.00;;;;;;6118941;23;19988;-79
2022/09/15 07:17:38;;;;;;;;;;;19.50;97.10;;;;;;6118340;23;20028;-79
2022/09/15 07:20:05;;;;;;;;;;;19.60;96.50;;;;;;6118374;23;19996;-78
2022/09/15 07:22:32;;;;;;;;;;;19.80;95.10;;;;;;6118175;23;19984;-77
2022/09/15 07:24:58;;;;;;;;;;;20.20;94.80;;;;;;6118793;23;20396;-77
2022/09/15 07:27:30;;;;;;;;;;;20.40;94.20;;;;;;6117931;23;19996;-79
2022/09/15 07:29:57;;;;;;;;;;;20.50;92.70;;;;;;6118898;23;19984;-80
2022/09/15 07:32:24;;;;;;;;;;;20.50;91.50;;;;;;6117957;23;19921;-80
2022/09/15 07:34:51;;;;;;;;;;;20.60;91.90;;;;;;6117839;23;19917;-79
2022/09/15 07:37:23;;;;;;;;;;;20.70;92.20;;;;;;6094949;23;19997;-80
2022/09/15 07:39:50;;;;;;;;;;;21.10;86.60;;;;;;6118734;23;19917;-80
2022/09/15 07:42:17;;;;;;;;;;;21.50;86.90;;;;;;6117669;23;19969;-79
2022/09/15 07:44:44;;;;;;;;;;;21.70;88.90;;;;;;6118800;23;19924;-80
2022/09/15 07:47:10;;;;;;;;;;;21.90;88.90;;;;;;6118652;23;19917;-80
2022/09/15 07:49:37;;;;;;;;;;;22.00;88.30;;;;;;6117935;23;19999;-79
2022/09/15 07:52:04;;;;;;;;;;;22.20;89.30;;;;;;6118580;23;19927;-80
2022/09/15 07:54:31;;;;;;;;;;;22.40;87.00;;;;;;6117847;23;20255;-79
2022/09/15 07:56:57;;;;;;;;;;;22.50;84.60;;;;;;6118573;23;19917;-80
2022/09/15 07:59:24;;;;;;;;;;;22.70;82.90;;;;;;6117763;23;19936;-80
2022/09/15 08:01:51;;;;;;;;;;;22.80;81.30;;;;;;6118179;23;19923;-77
2022/09/15 08:04:18;;;;;;;;;;;23.00;82.10;;;;;;6117635;23;19917;-78
2022/09/15 08:06:44;;;;;;;;;;;23.10;75.50;;;;;;6118383;23;19947;-78
2022/09/15 08:09:16;;;;;;;;;;;23.10;70.50;;;;;;6118359;23;19924;-78
2022/09/15 08:11:43;;;;;;;;;;;23.30;71.40;;;;;;6117233;23;19960;-80
2022/09/15 08:14:09;;;;;;;;;;;23.30;74.40;;;;;;6118456;23;19921;-77
2022/09/15 08:16:37;;;;;;;;;;;23.50;75.40;;;;;;6117737;23;19945;-77
2022/09/15 08:19:04;;;;;;;;;;;23.50;75.10;;;;;;6118310;23;20334;-79
2022/09/15 08:21:30;;;;;;;;;;;23.70;75.00;;;;;;6117158;23;19996;-77
2022/09/15 08:23:58;;;;;;;;;;;23.80;73.50;;;;;;6094132;23;20369;-80
2022/09/15 08:26:26;;;;;;;;;;;23.90;73.70;;;;;;6096966;23;20360;-78
2022/09/15 08:28:53;;;;;;;;;;;23.90;72.50;;;;;;6120087;23;19951;-78
2022/09/15 08:31:20;;;;;;;;;;;24.00;72.40;;;;;;6119309;23;19923;-79
2022/09/15 08:33:51;;;;;;;;;;;24.00;72.40;;;;;;6120563;23;20250;-78
2022/09/15 08:36:18;;;;;;;;;;;24.10;72.20;;;;;;6120155;23;19952;-78
2022/09/15 08:38:45;;;;;;;;;;;24.40;72.00;;;;;;6119392;23;19924;-80
2022/09/15 08:41:30;;;;;;;;;;;24.50;71.60;;;;;;6120128;23;19917;-78
2022/09/15 08:44:01;;;;;;;;;;;24.60;71.10;;;;;;6094883;23;20000;-78
2022/09/15 08:46:54;;;;;;;;;;;24.90;69.60;;;;;;6120366;23;19952;-78
2022/09/15 08:49:24;;;;;;;;;;;25.00;67.80;;;;;;6051955;23;20245;-79
2022/09/15 08:52:15;;;;;;;;;;;25.00;70.10;;;;;;6094759;23;19917;-77
2022/09/15 08:54:42;;;;;;;;;;;25.20;69.80;;;;;;6119906;23;19923;-78
2022/09/15 08:57:13;;;;;;;;;;;25.30;69.10;;;;;;6119273;23;19993;-78
2022/09/15 08:59:39;;;;;;;;;;;25.10;66.60;;;;;;6119781;23;20329;-79
2022/09/15 09:02:12;;;;;;;;;;;25.10;68.20;;;;;;6118242;23;20318;-78
2022/09/15 09:04:48;;;;;;;;;;;25.30;68.80;;;;;;6095842;23;19921;-78
2022/09/15 09:07:27;;;;;;;;;;;25.50;67.90;;;;;;6094844;23;20330;-78
2022/09/15 09:09:56;;;;;;;;;;;25.60;67.10;;;;;;6095673;23;20306;-78
2022/09/15 09:12:43;;;;;;;;;;;25.50;66.90;;;;;;6119166;23;20368;-79
2022/09/15 09:15:15;;;;;;;;;;;25.30;66.60;;;;;;6085349;23;19927;-78
2022/09/15 09:17:53;;;;;;;;;;;25.00;67.70;;;;;;6119448;23;19956;-78
2022/09/15 09:20:23;;;;;;;;;;;25.20;69.20;;;;;;6118941;23;19993;-78
2022/09/15 09:22:52;;;;;;;;;;;25.40;67.80;;;;;;6095729;23;19991;-79
2022/09/15 09:25:19;;;;;;;;;;;25.60;67.60;;;;;;6095293;23;20302;-79
2022/09/15 09:27:55;;;;;;;;;;;25.80;67.10;;;;;;6118593;23;20260;-79
2022/09/15 09:30:22;;;;;;;;;;;25.90;65.50;;;;;;6118624;23;19917;-80
2022/09/15 09:33:07;;;;;;;;;;;25.40;66.50;;;;;;6120025;23;19980;-79
2022/09/15 09:35:42;;;;;;;;;;;25.50;68.10;;;;;;6099669;23;20249;-79
2022/09/15 09:38:10;;;;;;;;;;;25.90;68.70;;;;;;6120223;23;19949;-80
2022/09/15 09:40:40;;;;;;;;;;;25.90;66.30;;;;;;6119438;23;19988;-78
2022/09/15 09:43:07;;;;;;;;;;;26.20;66.80;;;;;;6119634;23;19917;-80
2022/09/15 09:45:33;;;;;;;;;;;26.20;64.40;;;;;;6118431;23;19944;-79
2022/09/15 09:48:16;;;;;;;;;;;26.40;65.30;;;;;;6097066;23;20261;-79
2022/09/15 09:50:43;;;;;;;;;;;26.50;64.30;;;;;;6096225;23;20310;-80
2022/09/15 09:53:16;;;;;;;;;;;26.30;64.70;;;;;;6119211;23;19972;-79
2022/09/15 09:55:44;;;;;;;;;;;26.40;65.10;;;;;;6092916;23;19924;-79
2022/09/15 09:58:13;;;;;;;;;;;26.40;64.20;;;;;;6119293;23;19939;-79
2022/09/15 10:00:40;;;;;;;;;;;26.50;63.80;;;;;;6094813;23;19996;-79
2022/09/15 10:03:18;;;;;;;;;;;26.40;64.60;;;;;;6119794;23;20254;-79
2022/09/15 10:05:58;;;;;;;;;;;26.50;63.40;;;;;;6095169;23;19921;-79
2022/09/15 10:08:25;;;;;;;;;;;26.50;64.50;;;;;;6122009;23;20329;-79
2022/09/15 10:10:52;;;;;;;;;;;26.80;63.60;;;;;;6121515;23;20014;-79
2022/09/15 10:13:20;;;;;;;;;;;26.90;63.00;;;;;;6119235;23;20349;-79
2022/09/15 10:16:01;;;;;;;;;;;27.10;62.00;;;;;;6117114;23;20457;-80
2022/09/15 10:18:41;;;;;;;;;;;27.20;61.10;;;;;;6117960;23;20373;-80
2022/09/15 10:21:08;;;;;;;;;;;27.20;61.10;;;;;;6094027;23;19924;-79
2022/09/15 10:23:35;;;;;;;;;;;27.20;61.30;;;;;;6118572;23;20334;-79
2022/09/15 10:26:14;;;;;;;;;;;27.30;60.20;;;;;;6096024;23;20331;-79
2022/09/15 10:28:59;;;;;;;;;;;27.50;60.30;;;;;;6093725;23;19976;-80
2022/09/15 10:31:29;;;;;;;;;;;27.50;58.80;;;;;;6095169;23;20309;-79
2022/09/15 10:33:56;;;;;;;;;;;27.30;60.80;;;;;;6118879;23;19917;-79
2022/09/15 10:36:28;;;;;;;;;;;27.10;59.90;;;;;;6117582;23;19937;-79
2022/09/15 10:39:20;;;;;;;;;;;27.30;60.30;;;;;;6119355;23;19917;-79
2022/09/15 10:41:55;;;;;;;;;;;27.30;59.50;;;;;;6118442;23;19988;-79
2022/09/15 10:44:31;;;;;;;;;;;27.50;60.10;;;;;;6118074;23;19924;-79
2022/09/15 10:47:03;;;;;;;;;;;27.50;59.50;;;;;;6117912;23;19945;-79
2022/09/15 10:49:49;;;;;;;;;;;27.70;58.70;;;;;;6096224;23;19921;-79
2022/09/15 10:52:35;;;;;;;;;;;27.80;57.80;;;;;;6093632;23;19917;-78
2022/09/15 10:55:20;;;;;;;;;;;28.00;57.40;;;;;;6092833;23;20321;-78
2022/09/15 10:58:18;;;;;;;;;;;28.20;56.40;;;;;;6093108;23;19932;-79
2022/09/15 11:00:51;;;;;;;;;;;28.40;55.30;;;;;;6094176;23;19917;-79
2022/09/15 11:03:26;;;;;;;;;;;28.40;54.90;;;;;;6094281;23;20480;-79
2022/09/15 11:06:02;;;;;;;;;;;28.30;54.50;;;;;;6096082;23;19917;-79
2022/09/15 11:08:32;;;;;;;;;;;28.30;54.90;;;;;;6094262;23;19925;-79
2022/09/15 11:10:59;;;;;;;;;;;28.40;54.60;;;;;;6095077;23;19944;-79
2022/09/15 11:13:29;;;;;;;;;;;28.50;54.90;;;;;;6093844;23;19972;-79
2022/09/15 11:16:24;;;;;;;;;;;28.60;54.40;;;;;;6118538;23;19940;-80
2022/09/15 11:18:55;;;;;;;;;;;28.40;53.10;;;;;;6095463;23;19923;-80
2022/09/15 11:21:26;;;;;;;;;;;28.20;55.20;;;;;;6095976;23;19921;-80
2022/09/15 11:23:53;;;;;;;;;;;28.50;53.40;;;;;;6117760;23;20255;-79
2022/09/15 11:26:27;;;;;;;;;;;28.50;52.70;;;;;;6093469;23;20287;-80
2022/09/15 11:29:14;;;;;;;;;;;28.60;54.00;;;;;;6094620;23;19993;-80
2022/09/15 11:31:42;;;;;;;;;;;28.60;53.10;;;;;;6093836;23;19997;-80
2022/09/15 11:34:10;;;;;;;;;;;28.80;53.30;;;;;;6118927;23;19917;-79
2022/09/15 11:36:48;;;;;;;;;;;29.00;53.60;;;;;;6094171;23;19991;-81
2022/09/15 11:39:35;;;;;;;;;;;29.10;52.30;;;;;;6119443;23;19917;-80
2022/09/15 11:42:10;;;;;;;;;;;29.20;51.30;;;;;;6118599;23;19917;-81
2022/09/15 11:44:42;;;;;;;;;;;29.30;51.00;;;;;;6118171;23;19917;-82
2022/09/15 11:47:09;;;;;;;;;;;29.60;50.90;;;;;;6094892;23;20405;-80
2022/09/15 11:49:35;;;;;;;;;;;29.60;50.40;;;;;;6096270;23;19923;-81
2022/09/15 11:52:10;;;;;;;;;;;29.60;48.30;;;;;;6094199;23;20320;-81
2022/09/15 11:54:41;;;;;;;;;;;29.50;49.10;;;;;;6118850;23;19923;-80
2022/09/15 11:57:20;;;;;;;;;;;29.30;50.00;;;;;;6118594;23;19987;-80
2022/09/15 11:59:57;;;;;;;;;;;29.00;49.90;;;;;;6117991;23;20000;-80
2022/09/15 12:02:44;;;;;;;;;;;28.90;50.40;;;;;;6094384;23;19939;-80
2022/09/15 12:05:18;;;;;;;;;;;28.70;50.50;;;;;;6117620;23;19932;-82
2022/09/15 12:07:57;;;;;;;;;;;28.60;51.70;;;;;;6095697;23;20004;-80
2022/09/15 12:10:36;;;;;;;;;;;28.70;50.10;;;;;;6117657;23;19944;-80
2022/09/15 12:13:04;;;;;;;;;;;28.60;50.50;;;;;;6117428;23;20307;-80
2022/09/15 12:15:30;;;;;;;;;;;29.00;51.30;;;;;;6118637;23;20352;-80
2022/09/15 12:18:03;;;;;;;;;;;29.00;50.50;;;;;;6118182;23;19949;-80
2022/09/15 12:21:13;;;;;;;;;;;29.40;50.80;;;;;;6093415;23;20334;-81
2022/09/15 12:23:44;;;;;;;;;;;29.30;48.40;;;;;;6062527;23;19940;-81
2022/09/15 12:26:16;;;;;;;;;;;29.30;50.30;;;;;;6117450;23;19917;-82
2022/09/15 12:28:49;;;;;;;;;;;29.60;50.60;;;;;;6115004;23;19917;-81
2022/09/15 12:31:24;;;;;;;;;;;29.60;49.80;;;;;;6094315;23;19984;-81
2022/09/15 12:33:56;;;;;;;;;;;29.80;49.90;;;;;;6093515;23;19946;-83
2022/09/15 12:36:29;;;;;;;;;;;29.90;49.40;;;;;;6118441;23;20297;-81
2022/09/15 12:38:57;;;;;;;;;;;29.70;48.90;;;;;;6094095;23;19917;-81
2022/09/15 12:41:24;;;;;;;;;;;29.30;49.60;;;;;;6118387;23;19921;-82
2022/09/15 12:43:52;;;;;;;;;;;29.80;51.00;;;;;;6117608;23;20363;-81
2022/09/15 12:46:20;;;;;;;;;;;30.30;48.40;;;;;;6118531;23;19917;-81
2022/09/15 12:48:47;;;;;;;;;;;30.60;46.90;;;;;;6117360;23;20319;-81
2022/09/15 12:51:22;;;;;;;;;;;30.70;46.40;;;;;;6118603;23;19917;-82
2022/09/15 12:53:52;;;;;;;;;;;30.30;45.30;;;;;;6094819;23;19917;-82
2022/09/15 12:56:25;;;;;;;;;;;30.40;47.00;;;;;;6118857;23;20258;-81
2022/09/15 12:58:52;;;;;;;;;;;30.40;47.00;;;;;;6117953;23;19992;-83
2022/09/15 13:01:25;;;;;;;;;;;30.70;46.20;;;;;;6118489;23;19964;-81
2022/09/15 13:03:53;;;;;;;;;;;31.00;45.10;;;;;;6093558;23;19973;-82
2022/09/15 13:06:21;;;;;;;;;;;30.60;45.60;;;;;;6084594;23;19952;-81
2022/09/15 13:08:49;;;;;;;;;;;30.90;46.00;;;;;;6097073;23;19948;-82
2022/09/15 13:11:24;;;;;;;;;;;30.80;43.90;;;;;;6118693;23;19988;-82
2022/09/15 13:14:02;;;;;;;;;;;30.90;44.60;;;;;;6095081;23;20253;-84
2022/09/15 13:16:31;;;;;;;;;;;31.10;43.90;;;;;;6095030;23;19917;-82
2022/09/15 13:19:11;;;;;;;;;;;31.40;43.10;;;;;;6096258;23;19925;-82
2022/09/15 13:21:44;;;;;;;;;;;31.90;43.30;;;;;;6096616;23;19963;-83
2022/09/15 13:24:19;;;;;;;0.00;0.00;;;32.10;43.80;;;;;;6119739;23;19917;-82
2022/09/15 13:26:54;;;;;;;0.00;0.00;;;32.10;41.00;;;;;;6119395;23;20451;-81
2022/09/15 13:29:24;;;;;;;0.00;0.00;;;32.20;41.60;;;;;;6119521;23;20026;-82
2022/09/15 13:32:20;;;;;;;0.00;0.00;;;32.40;40.00;;;;;;6116946;23;20443;-81
2022/09/15 13:35:06;;;;;;;0.00;0.00;;;32.20;40.50;;;;;;6119499;23;20523;-82
2022/09/15 13:38:03;;;;;;;0.10;0.00;;;31.70;39.60;;;;;;6094954;23;20019;-83
2022/09/15 13:41:17;;;;;;;0.00;0.00;;;32.00;41.20;;;;;;6082200;23;20037;-83
2022/09/15 13:44:19;;;;;;;0.00;0.00;;;32.20;38.70;;;;;;6119401;23;20019;-83
2022/09/15 13:47:01;;;;;;;0.00;0.00;;;31.90;40.30;;;;;;6100626;23;20081;-82
2022/09/15 13:49:38;;;;;;;0.00;0.00;;;31.80;41.90;;;;;;6095358;23;20029;-83
2022/09/15 13:52:18;;;;;;;0.00;0.00;;;32.00;39.90;;;;;;6094687;23;20101;-83
2022/09/15 13:55:20;;;;;;;0.00;0.00;;;32.00;40.50;;;;;;6094676;23;20093;-83
2022/09/15 13:57:51;;;;;;;0.00;0.00;;;31.40;40.30;;;;;;6118838;23;20086;-82
2022/09/15 14:01:14;;;;;;;0.00;0.00;;;31.00;41.70;;;;;;6115371;23;20023;-82
2022/09/15 14:04:03;;;;;;;0.03;0.00;;;31.30;41.70;;;;;;6065453;23;20053;-82
2022/09/15 14:06:36;;;;;;;0.00;0.00;;;31.70;40.80;;;;;;6083371;23;20515;-82
2022/09/15 14:09:46;;;;;;;0.00;0.00;;;32.20;39.70;;;;;;6096344;23;20360;-82
2022/09/15 14:12:15;;;;;;;0.20;0.00;;;32.10;37.60;;;;;;6094656;23;20107;-83
2022/09/15 14:14:50;;;;;;;0.00;0.00;;;31.20;38.10;;;;;;6119397;23;20355;-82
2022/09/15 14:17:25;;;;;;;0.00;0.00;;;31.10;40.00;;;;;;6092822;23;20018;-82
2022/09/15 14:19:57;;;;;;;0.00;0.00;;;31.30;40.70;;;;;;6117741;23;20057;-83
2022/09/15 14:22:30;;;;;;;0.10;0.00;;;31.20;40.20;;;;;;6094090;23;20167;-82
2022/09/15 14:25:04;;;;;;;0.00;0.00;;;31.20;40.90;;;;;;6118635;23;20097;-82
2022/09/15 14:27:34;;;;;;;0.00;0.00;;;31.30;40.80;;;;;;6118081;23;20075;-82
2022/09/15 14:30:07;;;;;;;0.00;0.00;;;31.10;40.80;;;;;;6118358;23;20101;-82
2022/09/15 14:32:37;;;;;;;0.00;0.00;;;30.90;40.60;;;;;;6118711;23;20026;-82
2022/09/15 14:35:11;;;;;;;0.05;0.05;;;30.80;39.70;;;;;;6117987;23;20034;-83